Flight Number: EUR2194 Duration: 1:15
Departure: Beograd/Belgrade (LYBE) at 21:15 Distance: 411 Nm
Arrival: Munich Int'l (EDDM) at 22:30 Equipment: B737

Weather Information
Beograd / Surcin, Serbia and Montenegro (LYBE) 44-49N 020-17E 99M May 22, 2018 - 03:00 PM EDT / 2018.05.22 1900 UTC
Wind: from the SE (130 degrees) at 10 MPH (9 KT):0
Visibility: greater than 7 mile(s):0
Sky conditions: partly cloudy Temperature: 68 F (20 C) Dew Point: 59 F (15 C) Relative Humidity: 72% Pressure (altimeter): 30.00 in. Hg (1016 hPa)
ob: LYBE 221900Z 13009KT 9999 SCT040 20/15 Q1016 NOSIG cycle: 19
Sunrise: 03:06 Sunset: 18:04 (UTC)

Munchen, Germany (EDDM) 48-21N 011-47E May 22, 2018 - 02:50 PM EDT / 2018.05.22 1850 UTC
Wind: from the SW (230 degrees) at 6 MPH (5 KT) (direction variable):0
Visibility: greater than 7 mile(s):0
Sky conditions: mostly cloudy Weather: light rain showers; Towering cumulus clouds observed Temperature: 62 F (17 C) Dew Point: 53 F (12 C) Relative Humidity: 72% Pressure (altimeter): 29.91 in. Hg (1013 hPa)
ob: EDDM 221850Z 23005KT 190V320 9999 -SHRA FEW055TCU SCT085 BKN120 17/12 Q1013 TEMPO SHRA cycle: 19
Sunrise: 03:28 Sunset: 18:51 (UTC)

TAF: 404 Not Found

Not Found

The requested URL /data/forecasts/taf/stations/EDDM.TXT was not found on this server.



Previous Pireps for this route
Date Aircraft Flight time Fuel used Landing rate On time
2013-10-30B73701.248538-200Yes
2014-02-21B73701.4411407-291No
2016-01-18B73701.147400-302Yes
(pireps marked green are flown by you)

Route map